Time;durP1;ratioP1;P1;durP2;ratioP2;P2;SDS_P1;SDS_P2;PMS_P1;PMS_P2;Temp;Humidity;BMP_temperature;BMP_pressure;BME280_temperature;BME280_humidity;BME280_pressure;Samples;Min_cycle;Max_cycle;Signal;HPM_P1;HPM_P2
2023/09/01 00:00:09;;;;;;;6.18;2.85;;;;;;;;;;4984886;28;20081;-80
2023/09/01 00:02:34;;;;;;;7.57;3.10;;;;;;;;;;4959601;28;20425;-80
2023/09/01 00:04:59;;;;;;;6.78;3.10;;;;;;;;;;4981623;28;20073;-80
2023/09/01 00:07:25;;;;;;;5.13;2.70;;;;;;;;;;4969611;28;20030;-80
2023/09/01 00:09:51;;;;;;;5.72;3.03;;;;;;;;;;4963069;28;20367;-80
2023/09/01 00:12:16;;;;;;;5.18;2.78;;;;;;;;;;4984685;28;20038;-78
2023/09/01 00:14:42;;;;;;;7.82;3.17;;;;;;;;;;4984805;28;20048;-78
2023/09/01 00:17:08;;;;;;;7.47;3.20;;;;;;;;;;4982624;28;20731;-78
2023/09/01 00:19:34;;;;;;;7.05;3.90;;;;;;;;;;4966403;28;20513;-78
2023/09/01 00:22:00;;;;;;;5.55;3.13;;;;;;;;;;4967202;28;20076;-78
2023/09/01 00:24:25;;;;;;;7.90;3.15;;;;;;;;;;4984022;28;20047;-78
2023/09/01 00:26:51;;;;;;;7.32;3.38;;;;;;;;;;4965704;28;20045;-78
2023/09/01 00:29:16;;;;;;;5.57;3.17;;;;;;;;;;4984906;28;20026;-79
2023/09/01 00:31:41;;;;;;;7.05;3.47;;;;;;;;;;4985764;28;20553;-78
2023/09/01 00:34:07;;;;;;;5.28;3.33;;;;;;;;;;4985237;28;20037;-81
2023/09/01 00:36:32;;;;;;;6.10;3.28;;;;;;;;;;4985402;28;20488;-80
2023/09/01 00:38:57;;;;;;;6.38;3.47;;;;;;;;;;4981975;28;20069;-80
2023/09/01 00:41:23;;;;;;;6.85;3.90;;;;;;;;;;4991472;28;20084;-78
2023/09/01 00:43:48;;;;;;;8.20;3.47;;;;;;;;;;4972787;28;20034;-78
2023/09/01 00:46:13;;;;;;;8.73;3.67;;;;;;;;;;4970678;28;20066;-78
2023/09/01 00:48:39;;;;;;;6.70;4.07;;;;;;;;;;4986150;28;20093;-78
2023/09/01 00:51:04;;;;;;;6.50;3.65;;;;;;;;;;4990129;28;20057;-78
2023/09/01 00:53:30;;;;;;;7.28;3.55;;;;;;;;;;4989652;28;20474;-78
2023/09/01 00:55:57;;;;;;;6.47;3.88;;;;;;;;;;4986883;28;20030;-78
2023/09/01 00:58:25;;;;;;;5.63;3.70;;;;;;;;;;4988882;28;20034;-78
2023/09/01 01:00:51;;;;;;;6.22;3.67;;;;;;;;;;4987645;28;20364;-78
2023/09/01 01:03:17;;;;;;;8.48;3.83;;;;;;;;;;4984283;28;20809;-78
2023/09/01 01:06:21;;;;;;;7.72;3.80;;;;;;;;;;4973061;28;20113;-78
2023/09/01 01:09:22;;;;;;;8.10;4.25;;;;;;;;;;4987196;28;20030;-78
2023/09/01 01:11:49;;;;;;;7.63;3.75;;;;;;;;;;4984561;28;20038;-79
2023/09/01 01:14:30;;;;;;;6.18;3.30;;;;;;;;;;4974033;28;20030;-78
2023/09/01 01:16:56;;;;;;;6.03;3.60;;;;;;;;;;4968781;28;20050;-78
2023/09/01 01:19:54;;;;;;;8.77;3.40;;;;;;;;;;4968043;28;20077;-78
2023/09/01 01:22:53;;;;;;;7.10;3.50;;;;;;;;;;4973818;28;20437;-78
2023/09/01 01:25:20;;;;;;;5.78;3.47;;;;;;;;;;4988204;28;20126;-78
2023/09/01 01:27:45;;;;;;;8.35;3.63;;;;;;;;;;4985126;28;20032;-79
2023/09/01 01:30:14;;;;;;;7.78;3.55;;;;;;;;;;4983122;28;20038;-81
2023/09/01 01:32:41;;;;;;;6.13;3.33;;;;;;;;;;4968290;28;20478;-81
2023/09/01 01:35:18;;;;;;;5.53;3.53;;;;;;;;;;4963898;28;20045;-80
2023/09/01 01:37:51;;;;;;;8.23;3.80;;;;;;;;;;4986969;28;20030;-81
2023/09/01 01:40:19;;;;;;;;;;;;;;;;;;4984503;28;20035;-80
2023/09/01 01:42:47;;;;;;;7.35;3.58;;;;;;;;;;4984888;28;19913;-79
2023/09/01 01:45:16;;;;;;;6.05;3.25;;;;;;;;;;4982637;28;20490;-78
2023/09/01 01:47:42;;;;;;;8.30;3.58;;;;;;;;;;4985101;28;20512;-79
2023/09/01 01:50:07;;;;;;;5.38;3.30;;;;;;;;;;4983372;28;20061;-79
2023/09/01 01:52:33;;;;;;;7.28;3.50;;;;;;;;;;4964921;28;20706;-78
2023/09/01 01:54:58;;;;;;;5.68;3.20;;;;;;;;;;4989499;28;20124;-79
2023/09/01 01:57:23;;;;;;;6.25;3.83;;;;;;;;;;4984859;28;20109;-79
2023/09/01 01:59:49;;;;;;;7.65;3.53;;;;;;;;;;4985575;28;20441;-78
2023/09/01 02:02:14;;;;;;;6.72;3.03;;;;;;;;;;5002241;28;20052;-78
2023/09/01 02:04:40;;;;;;;6.97;3.35;;;;;;;;;;5008282;28;20048;-78
2023/09/01 02:07:05;;;;;;;6.82;3.40;;;;;;;;;;5009750;28;20065;-78
2023/09/01 02:09:32;;;;;;;5.60;3.20;;;;;;;;;;5009392;28;20080;-78
2023/09/01 02:11:57;;;;;;;6.18;3.33;;;;;;;;;;5003081;28;20510;-79
2023/09/01 02:14:23;;;;;;;7.22;3.72;;;;;;;;;;5007907;28;20121;-80
2023/09/01 02:16:49;;;;;;;7.20;3.20;;;;;;;;;;4991467;28;20040;-80
2023/09/01 02:19:14;;;;;;;7.35;3.30;;;;;;;;;;5009996;28;20021;-80
2023/09/01 02:21:40;;;;;;;7.82;3.40;;;;;;;;;;5003371;28;20056;-79
2023/09/01 02:24:05;;;;;;;6.90;3.60;;;;;;;;;;4985067;28;20038;-80
2023/09/01 02:26:31;;;;;;;6.57;3.83;;;;;;;;;;5006030;28;20101;-80
2023/09/01 02:28:56;;;;;;;7.00;3.47;;;;;;;;;;4987586;28;20018;-79
2023/09/01 02:31:22;;;;;;;6.80;3.92;;;;;;;;;;4991157;28;20033;-79
2023/09/01 02:33:47;;;;;;;6.38;3.50;;;;;;;;;;5002377;28;20049;-80
2023/09/01 02:36:24;;;;;;;6.38;3.35;;;;;;;;;;5009538;28;20026;-79
2023/09/01 02:38:50;;;;;;;6.32;3.55;;;;;;;;;;5008651;28;20025;-80
2023/09/01 02:41:16;;;;;;;6.45;3.22;;;;;;;;;;5005342;28;20026;-80
2023/09/01 02:43:41;;;;;;;7.50;3.92;;;;;;;;;;5001311;28;20052;-79
2023/09/01 02:46:07;;;;;;;6.78;3.47;;;;;;;;;;5006359;28;20084;-80
2023/09/01 02:48:32;;;;;;;6.30;3.75;;;;;;;;;;5008185;28;20469;-79
2023/09/01 02:50:58;;;;;;;8.10;3.70;;;;;;;;;;5009011;28;20532;-81
2023/09/01 02:53:24;;;;;;;7.85;3.80;;;;;;;;;;5003795;28;20375;-81
2023/09/01 02:55:49;;;;;;;6.60;3.40;;;;;;;;;;4990060;28;20080;-81
2023/09/01 02:58:14;;;;;;;9.32;3.83;;;;;;;;;;4987916;28;20038;-80
2023/09/01 03:00:40;;;;;;;7.05;3.53;;;;;;;;;;4971538;28;20402;-79
2023/09/01 03:03:06;;;;;;;6.85;3.60;;;;;;;;;;4985707;28;20026;-78
2023/09/01 03:05:31;;;;;;;8.35;3.55;;;;;;;;;;4985331;28;20057;-78
2023/09/01 03:07:58;;;;;;;6.60;3.53;;;;;;;;;;4983041;28;20053;-78
2023/09/01 03:10:23;;;;;;;7.00;3.85;;;;;;;;;;4979562;28;20030;-79
2023/09/01 03:12:49;;;;;;;5.70;3.55;;;;;;;;;;4965620;28;20026;-78
2023/09/01 03:15:15;;;;;;;6.90;3.53;;;;;;;;;;4974874;28;20097;-78
2023/09/01 03:17:40;;;;;;;6.97;3.60;;;;;;;;;;4964557;28;20056;-79
2023/09/01 03:20:09;;;;;;;9.50;3.75;;;;;;;;;;4984142;28;20053;-78
2023/09/01 03:22:34;;;;;;;7.07;3.97;;;;;;;;;;4964569;28;20035;-78
2023/09/01 03:25:00;;;;;;;8.05;3.88;;;;;;;;;;4989997;28;20086;-78
2023/09/01 03:27:25;;;;;;;8.77;4.10;;;;;;;;;;4984140;28;20072;-79
2023/09/01 03:29:54;;;;;;;7.57;4.30;;;;;;;;;;4982379;28;20042;-79
2023/09/01 03:32:19;;;;;;;9.77;4.88;;;;;;;;;;4974359;28;20022;-80
2023/09/01 03:34:45;;;;;;;7.72;4.00;;;;;;;;;;4961562;28;20391;-79
2023/09/01 03:37:12;;;;;;;8.05;4.10;;;;;;;;;;4975344;28;20361;-78
2023/09/01 03:39:37;;;;;;;9.68;4.50;;;;;;;;;;4983503;28;20037;-78
2023/09/01 03:42:03;;;;;;;9.75;4.72;;;;;;;;;;4987283;28;20018;-78
2023/09/01 03:44:29;;;;;;;7.55;4.68;;;;;;;;;;4976946;28;20030;-78
2023/09/01 03:46:55;;;;;;;9.25;4.57;;;;;;;;;;4984581;28;20034;-78
2023/09/01 03:49:20;;;;;;;7.00;4.43;;;;;;;;;;4970175;28;20026;-78
2023/09/01 03:51:46;;;;;;;7.90;4.63;;;;;;;;;;4983801;28;20057;-78
2023/09/01 03:54:11;;;;;;;7.82;4.40;;;;;;;;;;4981006;28;20105;-78
2023/09/01 03:56:37;;;;;;;7.05;4.32;;;;;;;;;;4982430;28;20026;-78
2023/09/01 03:59:02;;;;;;;8.18;4.72;;;;;;;;;;4979114;28;20035;-78
2023/09/01 04:01:27;;;;;;;7.70;4.72;;;;;;;;;;4983200;28;20029;-78
2023/09/01 04:03:53;;;;;;;10.93;4.65;;;;;;;;;;4960688;28;20042;-79
2023/09/01 04:06:18;;;;;;;7.38;4.60;;;;;;;;;;4962780;28;20113;-78
2023/09/01 04:08:43;;;;;;;6.75;4.68;;;;;;;;;;4960218;28;20367;-78
2023/09/01 04:11:09;;;;;;;8.82;4.72;;;;;;;;;;4980722;28;20026;-78
2023/09/01 04:13:35;;;;;;;9.07;4.75;;;;;;;;;;4989935;28;20030;-78
2023/09/01 04:16:00;;;;;;;8.05;4.70;;;;;;;;;;4984966;28;20502;-78
2023/09/01 04:18:26;;;;;;;8.23;4.32;;;;;;;;;;4990374;28;21111;-78
2023/09/01 04:20:53;;;;;;;10.57;4.55;;;;;;;;;;4968363;28;20093;-78
2023/09/01 04:23:19;;;;;;;6.53;4.38;;;;;;;;;;4986481;28;20105;-79
2023/09/01 04:25:48;;;;;;;6.63;4.20;;;;;;;;;;4981839;28;20145;-78
2023/09/01 04:28:14;;;;;;;6.43;4.03;;;;;;;;;;4986950;28;20398;-78
2023/09/01 04:30:39;;;;;;;8.77;4.07;;;;;;;;;;4966232;28;20026;-79
2023/09/01 04:33:05;;;;;;;7.75;4.43;;;;;;;;;;4982698;28;20029;-80
2023/09/01 04:35:32;;;;;;;6.57;4.30;;;;;;;;;;4981824;28;20038;-80
2023/09/01 04:37:57;;;;;;;7.63;4.20;;;;;;;;;;4983522;28;20113;-80
2023/09/01 04:40:23;;;;;;;7.57;4.10;;;;;;;;;;4980278;28;20030;-79
2023/09/01 04:42:48;;;;;;;6.50;3.85;;;;;;;;;;4993041;28;20039;-80
2023/09/01 04:45:13;;;;;;;7.60;3.90;;;;;;;;;;4981277;28;20536;-79
2023/09/01 04:47:39;;;;;;;7.80;3.60;;;;;;;;;;4954477;28;20442;-80
2023/09/01 04:50:05;;;;;;;8.00;4.00;;;;;;;;;;4983334;28;20033;-79
2023/09/01 04:52:30;;;;;;;6.60;3.70;;;;;;;;;;4968194;28;20394;-78
2023/09/01 04:54:55;;;;;;;8.13;3.75;;;;;;;;;;4963506;28;20035;-78
2023/09/01 04:57:21;;;;;;;6.32;4.10;;;;;;;;;;4967866;28;20030;-77
2023/09/01 04:59:48;;;;;;;6.00;3.95;;;;;;;;;;4987963;28;20023;-78
2023/09/01 05:02:13;;;;;;;5.32;3.75;;;;;;;;;;4968712;28;20533;-78
2023/09/01 05:04:38;;;;;;;6.07;3.90;;;;;;;;;;4987899;28;20129;-78
2023/09/01 05:07:04;;;;;;;7.13;3.95;;;;;;;;;;4985560;28;20486;-78
2023/09/01 05:09:29;;;;;;;6.40;3.75;;;;;;;;;;4986263;28;20202;-77
2023/09/01 05:11:54;;;;;;;5.25;3.65;;;;;;;;;;4974998;28;20047;-78
2023/09/01 05:14:20;;;;;;;6.63;3.92;;;;;;;;;;4974463;28;20030;-78
2023/09/01 05:16:45;;;;;;;6.50;4.00;;;;;;;;;;4966303;28;20050;-78
2023/09/01 05:19:11;;;;;;;7.30;4.30;;;;;;;;;;4969410;28;20037;-78
2023/09/01 05:21:36;;;;;;;7.47;4.47;;;;;;;;;;4992235;28;20595;-78
2023/09/01 05:24:01;;;;;;;6.40;4.20;;;;;;;;;;4967087;28;20030;-77
2023/09/01 05:26:27;;;;;;;7.82;4.32;;;;;;;;;;4971191;28;20057;-77
2023/09/01 05:28:52;;;;;;;9.88;4.82;;;;;;;;;;4963670;28;20026;-79
2023/09/01 05:31:17;;;;;;;8.02;4.25;;;;;;;;;;4987282;28;20030;-80
2023/09/01 05:33:42;;;;;;;6.75;3.95;;;;;;;;;;4968976;28;20065;-80
2023/09/01 05:36:08;;;;;;;10.32;4.50;;;;;;;;;;4971026;28;20109;-80
2023/09/01 05:38:33;;;;;;;8.80;3.70;;;;;;;;;;4968501;28;20245;-80
2023/09/01 05:41:01;;;;;;;7.85;4.18;;;;;;;;;;4983031;28;20026;-79
2023/09/01 05:43:27;;;;;;;7.85;4.53;;;;;;;;;;4989505;28;20382;-79
2023/09/01 05:45:52;;;;;;;6.18;4.15;;;;;;;;;;4984654;28;20033;-80
2023/09/01 05:48:18;;;;;;;8.27;4.68;;;;;;;;;;4981973;28;20034;-81
2023/09/01 05:50:44;;;;;;;7.47;4.15;;;;;;;;;;4981425;28;20137;-81
2023/09/01 05:53:10;;;;;;;7.32;4.00;;;;;;;;;;4971548;28;20029;-81
2023/09/01 05:55:36;;;;;;;6.63;4.15;;;;;;;;;;4992046;28;20083;-80
2023/09/01 05:58:02;;;;;;;11.55;5.18;;;;;;;;;;5006678;28;20029;-80
2023/09/01 06:00:28;;;;;;;8.57;5.05;;;;;;;;;;5005353;28;20100;-81
2023/09/01 06:02:54;;;;;;;8.23;4.95;;;;;;;;;;5005181;28;20073;-79
2023/09/01 06:05:20;;;;;;;9.23;4.50;;;;;;;;;;5007684;28;20077;-81
2023/09/01 06:07:45;;;;;;;8.55;4.45;;;;;;;;;;4990955;28;20045;-79
2023/09/01 06:10:11;;;;;;;8.02;4.10;;;;;;;;;;4993412;28;20022;-81
2023/09/01 06:12:36;;;;;;;10.10;5.05;;;;;;;;;;4989986;28;20085;-81
2023/09/01 06:15:02;;;;;;;9.75;4.82;;;;;;;;;;5009917;28;20083;-81
2023/09/01 06:17:27;;;;;;;9.93;4.65;;;;;;;;;;5005481;28;20026;-81
2023/09/01 06:19:53;;;;;;;7.95;4.20;;;;;;;;;;4985739;28;20465;-81
2023/09/01 06:22:18;;;;;;;8.75;4.82;;;;;;;;;;4997499;28;20560;-80
2023/09/01 06:24:43;;;;;;;9.07;4.32;;;;;;;;;;4984314;28;20040;-81
2023/09/01 06:27:09;;;;;;;7.00;4.93;;;;;;;;;;5004506;28;20034;-80
2023/09/01 06:29:34;;;;;;;7.88;4.60;;;;;;;;;;5003789;28;20080;-81
2023/09/01 06:31:59;;;;;;;12.50;4.40;;;;;;;;;;5008181;28;20041;-79
2023/09/01 06:34:25;;;;;;;6.00;3.97;;;;;;;;;;5000895;28;20025;-81
2023/09/01 06:36:50;;;;;;;8.63;4.63;;;;;;;;;;4988004;28;20117;-81
2023/09/01 06:39:18;;;;;;;7.85;4.57;;;;;;;;;;5007536;28;20109;-81
2023/09/01 06:41:45;;;;;;;6.10;3.95;;;;;;;;;;5010272;28;20111;-77
2023/09/01 06:44:11;;;;;;;9.35;5.03;;;;;;;;;;5006549;28;20017;-77
2023/09/01 06:46:36;;;;;;;8.57;4.78;;;;;;;;;;5011974;28;20460;-78
2023/09/01 06:49:02;;;;;;;8.20;4.57;;;;;;;;;;5010078;28;20064;-78
2023/09/01 06:51:28;;;;;;;7.53;4.60;;;;;;;;;;4997635;28;20029;-78
2023/09/01 06:53:54;;;;;;;7.68;4.28;;;;;;;;;;5011672;28;20032;-80
2023/09/01 06:56:19;;;;;;;6.60;4.55;;;;;;;;;;5008921;28;20112;-80
2023/09/01 06:58:45;;;;;;;7.20;4.40;;;;;;;;;;5008205;28;20038;-80
2023/09/01 07:01:11;;;;;;;7.40;5.07;;;;;;;;;;5011473;28;20030;-80
2023/09/01 07:03:36;;;;;;;7.40;5.28;;;;;;;;;;4994910;28;20072;-81
2023/09/01 07:06:03;;;;;;;12.45;5.30;;;;;;;;;;5002466;28;20490;-78
2023/09/01 07:08:29;;;;;;;8.43;4.82;;;;;;;;;;4994060;28;20022;-79
2023/09/01 07:11:03;;;;;;;9.80;5.32;;;;;;;;;;5003517;28;20382;-78
2023/09/01 07:13:29;;;;;;;10.05;4.90;;;;;;;;;;4988765;28;20037;-78
2023/09/01 07:15:55;;;;;;;7.07;5.10;;;;;;;;;;5006233;28;20442;-78
2023/09/01 07:18:22;;;;;;;7.90;4.88;;;;;;;;;;4989844;28;20026;-78
2023/09/01 07:20:48;;;;;;;8.90;5.53;;;;;;;;;;4985153;28;20148;-77
2023/09/01 07:23:13;;;;;;;8.25;5.03;;;;;;;;;;4999474;28;21506;-77
2023/09/01 07:25:39;;;;;;;8.07;4.90;;;;;;;;;;4989614;28;20034;-77
2023/09/01 07:28:06;;;;;;;7.97;5.15;;;;;;;;;;4988821;28;20420;-78
2023/09/01 07:30:32;;;;;;;8.50;5.03;;;;;;;;;;5009274;28;20096;-78
2023/09/01 07:32:58;;;;;;;8.15;5.45;;;;;;;;;;5003976;28;20101;-78
2023/09/01 07:35:24;;;;;;;9.30;5.60;;;;;;;;;;5010661;28;20120;-78
2023/09/01 07:37:49;;;;;;;8.23;5.57;;;;;;;;;;5005668;28;20084;-78
2023/09/01 07:40:14;;;;;;;8.40;5.60;;;;;;;;;;5005749;28;20061;-79
2023/09/01 07:42:39;;;;;;;8.48;5.32;;;;;;;;;;5006326;28;20390;-78
2023/09/01 07:45:05;;;;;;;9.88;5.90;;;;;;;;;;5009701;28;20057;-79
2023/09/01 07:47:31;;;;;;;8.50;5.63;;;;;;;;;;5000593;28;20097;-78
2023/09/01 07:49:56;;;;;;;10.32;6.10;;;;;;;;;;4987546;28;20049;-78
2023/09/01 07:52:21;;;;;;;11.25;6.88;;;;;;;;;;4984538;28;20025;-79
2023/09/01 07:54:47;;;;;;;7.60;5.43;;;;;;;;;;4985015;28;20116;-78
2023/09/01 07:57:12;;;;;;;8.48;5.45;;;;;;;;;;5004876;28;20061;-78
2023/09/01 07:59:39;;;;;;;7.85;5.50;;;;;;;;;;4987829;28;20060;-78
2023/09/01 08:02:05;;;;;;;11.32;6.00;;;;;;;;;;4983644;28;20037;-78
2023/09/01 08:04:30;;;;;;;13.05;6.07;;;;;;;;;;5007207;28;20029;-81
2023/09/01 08:06:56;;;;;;;10.98;6.60;;;;;;;;;;4988585;28;20030;-80
2023/09/01 08:09:21;;;;;;;9.55;6.20;;;;;;;;;;5005813;28;20393;-81
2023/09/01 08:11:46;;;;;;;10.10;6.15;;;;;;;;;;5008251;28;20452;-81
2023/09/01 08:14:12;;;;;;;10.13;6.65;;;;;;;;;;5005089;28;20022;-78
2023/09/01 08:16:37;;;;;;;11.43;6.38;;;;;;;;;;4991078;28;20075;-78
2023/09/01 08:19:03;;;;;;;8.75;6.05;;;;;;;;;;5006461;28;20026;-77
2023/09/01 08:21:30;;;;;;;9.13;6.80;;;;;;;;;;5012038;28;20044;-78
2023/09/01 08:23:56;;;;;;;9.82;6.25;;;;;;;;;;5006202;28;20030;-78
2023/09/01 08:26:21;;;;;;;9.10;6.32;;;;;;;;;;5008973;28;20041;-78
2023/09/01 08:28:46;;;;;;;9.35;6.35;;;;;;;;;;5005734;28;20026;-78
2023/09/01 08:31:12;;;;;;;9.60;6.32;;;;;;;;;;4993605;28;20030;-78
2023/09/01 08:33:37;;;;;;;10.25;6.22;;;;;;;;;;4990816;28;20470;-78
2023/09/01 08:36:05;;;;;;;12.80;6.30;;;;;;;;;;4994887;28;20033;-78
2023/09/01 08:38:31;;;;;;;10.07;6.85;;;;;;;;;;5006016;28;20531;-78
2023/09/01 08:41:03;;;;;;;9.02;5.68;;;;;;;;;;4985890;28;20025;-78
2023/09/01 08:43:34;;;;;;;9.17;6.30;;;;;;;;;;5006989;28;20494;-78
2023/09/01 08:46:02;;;;;;;8.45;5.63;;;;;;;;;;5015965;28;20049;-78
2023/09/01 08:48:27;;;;;;;10.10;7.03;;;;;;;;;;5012114;28;20025;-78
2023/09/01 08:50:54;;;;;;;10.68;6.88;;;;;;;;;;4991427;28;20032;-78
2023/09/01 08:53:21;;;;;;;7.60;6.03;;;;;;;;;;5000627;28;20038;-78
2023/09/01 08:55:46;;;;;;;10.10;6.40;;;;;;;;;;4988051;28;20050;-78
2023/09/01 08:58:11;;;;;;;10.43;6.60;;;;;;;;;;4975172;28;20066;-78
2023/09/01 09:00:37;;;;;;;9.00;6.53;;;;;;;;;;4991849;28;20470;-78
2023/09/01 09:03:03;;;;;;;7.70;6.07;;;;;;;;;;4992963;28;20022;-78
2023/09/01 09:05:29;;;;;;;8.63;6.18;;;;;;;;;;4970488;28;20050;-78
2023/09/01 09:08:03;;;;;;;11.95;7.13;;;;;;;;;;4992131;28;20026;-78
2023/09/01 09:10:40;;;;;;;10.98;6.90;;;;;;;;;;4990026;28;20481;-78
2023/09/01 09:13:23;;;;;;;9.02;6.35;;;;;;;;;;4992144;28;20040;-78
2023/09/01 09:16:10;;;;;;;9.88;6.88;;;;;;;;;;4972719;28;20125;-79
2023/09/01 09:18:36;;;;;;;9.15;6.70;;;;;;;;;;4985111;28;20041;-79
2023/09/01 09:21:02;;;;;;;9.15;6.55;;;;;;;;;;4983515;28;20510;-79
2023/09/01 09:23:44;;;;;;;9.80;6.93;;;;;;;;;;4981680;28;20105;-78
2023/09/01 09:26:10;;;;;;;9.98;6.70;;;;;;;;;;4988951;28;20018;-79
2023/09/01 09:28:36;;;;;;;9.55;7.05;;;;;;;;;;4971441;28;20470;-79
2023/09/01 09:31:02;;;;;;;8.90;6.65;;;;;;;;;;4989378;28;20030;-79
2023/09/01 09:33:32;;;;;;;10.57;6.90;;;;;;;;;;4989990;28;20029;-79
2023/09/01 09:35:58;;;;;;;8.10;6.70;;;;;;;;;;4982989;28;20394;-79
2023/09/01 09:38:38;;;;;;;10.20;7.05;;;;;;;;;;4983316;28;20022;-79
2023/09/01 09:41:03;;;;;;;8.38;6.88;;;;;;;;;;4971484;28;20034;-79
2023/09/01 09:43:30;;;;;;;10.45;6.72;;;;;;;;;;4990623;28;20387;-79
2023/09/01 09:45:56;;;;;;;12.43;6.47;;;;;;;;;;4987494;28;20409;-79
2023/09/01 09:48:21;;;;;;;8.63;6.90;;;;;;;;;;4989056;28;20022;-79
2023/09/01 09:50:50;;;;;;;9.00;6.43;;;;;;;;;;4969718;28;20026;-79
2023/09/01 09:53:21;;;;;;;8.52;6.40;;;;;;;;;;4988738;28;20442;-79
2023/09/01 09:55:49;;;;;;;7.75;6.05;;;;;;;;;;4987330;28;20390;-79
2023/09/01 09:58:17;;;;;;;9.10;6.38;;;;;;;;;;4990274;28;20034;-79
2023/09/01 10:00:57;;;;;;;9.45;6.63;;;;;;;;;;4972075;28;20490;-79
2023/09/01 10:03:25;;;;;;;8.95;7.10;;;;;;;;;;4990105;28;20037;-79
2023/09/01 10:05:51;;;;;;;7.53;6.28;;;;;;;;;;4990358;28;20052;-79
2023/09/01 10:08:20;;;;;;;9.30;6.82;;;;;;;;;;4972604;28;20026;-79
2023/09/01 10:10:45;;;;;;;8.52;6.72;;;;;;;;;;4988742;28;20470;-79
2023/09/01 10:13:12;;;;;;;10.80;7.32;;;;;;;;;;4990647;28;20030;-79
2023/09/01 10:15:37;;;;;;;10.15;6.47;;;;;;;;;;4968438;28;20030;-79
2023/09/01 10:18:05;;;;;;;10.73;7.38;;;;;;;;;;4972054;28;20032;-79
2023/09/01 10:20:32;;;;;;;11.25;7.32;;;;;;;;;;4988294;28;20022;-79
2023/09/01 10:22:58;;;;;;;9.07;7.47;;;;;;;;;;4983313;28;20490;-78
2023/09/01 10:25:24;;;;;;;10.57;7.85;;;;;;;;;;4989614;28;20034;-78
2023/09/01 10:28:04;;;;;;;11.90;7.57;;;;;;;;;;4990998;28;20453;-78
2023/09/01 10:30:34;;;;;;;9.85;7.15;;;;;;;;;;4971482;28;20379;-78
2023/09/01 10:33:04;;;;;;;9.52;6.95;;;;;;;;;;4990529;28;20117;-78
2023/09/01 10:35:41;;;;;;;9.13;7.20;;;;;;;;;;4974385;28;20026;-78
2023/09/01 10:38:17;;;;;;;10.43;6.88;;;;;;;;;;4988159;28;20054;-78
2023/09/01 10:40:51;;;;;;;11.10;7.07;;;;;;;;;;4988648;28;20026;-78
2023/09/01 10:43:35;;;;;;;11.18;7.60;;;;;;;;;;4971726;28;20460;-78
2023/09/01 10:46:14;;;;;;;9.23;6.63;;;;;;;;;;4988755;28;20502;-78
2023/09/01 10:48:49;;;;;;;9.85;6.82;;;;;;;;;;4990434;28;20025;-78
2023/09/01 10:51:16;;;;;;;9.05;6.80;;;;;;;;;;4973950;28;20034;-78
2023/09/01 10:53:41;;;;;;;8.10;6.50;;;;;;;;;;4991557;28;20443;-78
2023/09/01 10:56:15;;;;;;;7.82;6.50;;;;;;;;;;5003419;28;20040;-78
2023/09/01 10:58:52;;;;;;;10.02;7.30;;;;;;;;;;4984472;28;20496;-78
2023/09/01 11:01:37;;;;;;;9.30;6.80;;;;;;;;;;5006867;28;20049;-78
2023/09/01 11:04:20;;;;;;;8.75;6.63;;;;;;;;;;5003559;28;20052;-78
2023/09/01 11:07:13;;;;;;;10.82;6.85;;;;;;;;;;5001245;28;20022;-78
2023/09/01 11:09:44;;;;;;;9.63;6.53;;;;;;;;;;4981337;28;20176;-78
2023/09/01 11:12:11;;;;;;;9.23;6.65;;;;;;;;;;4982769;28;20077;-78
2023/09/01 11:14:38;;;;;;;8.35;6.38;;;;;;;;;;5001863;28;20040;-78
2023/09/01 11:17:04;;;;;;;7.93;6.55;;;;;;;;;;5008743;28;20069;-78
2023/09/01 11:19:46;;;;;;;8.38;5.95;;;;;;;;;;5005297;28;20049;-78
2023/09/01 11:22:12;;;;;;;9.60;6.40;;;;;;;;;;4992715;28;20026;-78
2023/09/01 11:24:37;;;;;;;7.90;5.97;;;;;;;;;;5005383;28;20037;-78
2023/09/01 11:27:03;;;;;;;9.40;6.43;;;;;;;;;;5012357;28;20026;-78
2023/09/01 11:29:28;;;;;;;7.85;5.93;;;;;;;;;;5011432;28;20026;-78
2023/09/01 11:31:54;;;;;;;8.15;5.53;;;;;;;;;;4982167;28;20052;-78
2023/09/01 11:34:19;;;;;;;7.53;5.68;;;;;;;;;;4998838;28;20125;-80
2023/09/01 11:36:45;;;;;;;8.18;5.68;;;;;;;;;;4996840;28;20457;-80
2023/09/01 11:39:11;;;;;;;6.97;6.00;;;;;;;;;;5005204;28;20362;-80
2023/09/01 11:41:37;;;;;;;7.90;5.72;;;;;;;;;;5006841;28;20029;-80
2023/09/01 11:44:03;;;;;;;7.38;5.70;;;;;;;;;;4984869;28;20029;-80
2023/09/01 11:46:33;;;;;;;6.97;5.72;;;;;;;;;;4987347;28;20473;-80
2023/09/01 11:49:00;;;;;;;7.85;5.47;;;;;;;;;;5006984;28;20135;-80
2023/09/01 11:51:38;;;;;;;8.63;5.97;;;;;;;;;;5007639;28;20124;-80
2023/09/01 11:54:04;;;;;;;9.63;6.90;;;;;;;;;;4994421;28;20033;-80
2023/09/01 11:56:29;;;;;;;9.13;6.63;;;;;;;;;;4971675;28;20048;-84
2023/09/01 11:58:56;;;;;;;8.13;6.30;;;;;;;;;;4968587;28;20034;-82
2023/09/01 12:01:23;;;;;;;8.68;6.47;;;;;;;;;;4975170;28;20494;-84
2023/09/01 12:03:53;;;;;;;7.85;6.47;;;;;;;;;;4989826;28;20105;-83
2023/09/01 12:06:23;;;;;;;7.70;5.57;;;;;;;;;;4987329;28;20037;-83
2023/09/01 12:08:51;;;;;;;8.55;6.50;;;;;;;;;;4986133;28;20041;-84
2023/09/01 12:11:17;;;;;;;9.48;6.93;;;;;;;;;;4994845;28;20171;-84
2023/09/01 12:13:46;;;;;;;10.95;6.65;;;;;;;;;;4972676;28;20117;-85
2023/09/01 12:16:22;;;;;;;8.73;6.72;;;;;;;;;;4978940;28;20026;-84
2023/09/01 12:18:48;;;;;;;7.88;6.20;;;;;;;;;;4972637;28;20100;-84
2023/09/01 12:21:14;;;;;;;10.15;7.03;;;;;;;;;;4990449;28;20084;-83
2023/09/01 12:23:43;;;;;;;9.00;7.05;;;;;;;;;;4992639;28;20442;-84
2023/09/01 12:26:09;;;;;;;6.60;5.43;;;;;;;;;;4989570;28;20435;-83
2023/09/01 12:28:35;;;;;;;7.50;6.28;;;;;;;;;;4986125;28;20189;-82
2023/09/01 12:31:02;;;;;;;7.78;5.95;;;;;;;;;;4991259;28;20028;-82
2023/09/01 12:33:28;;;;;;;6.40;5.13;;;;;;;;;;4988988;28;20041;-82
2023/09/01 12:35:54;;;;;;;8.15;6.47;;;;;;;;;;4975876;28;20030;-83
2023/09/01 12:38:20;;;;;;;9.73;7.07;;;;;;;;;;4994183;28;20046;-83
2023/09/01 12:40:46;;;;;;;8.52;6.43;;;;;;;;;;4991835;28;20066;-83
2023/09/01 12:43:11;;;;;;;9.68;6.90;;;;;;;;;;4975510;28;20116;-81
2023/09/01 12:45:37;;;;;;;8.10;6.63;;;;;;;;;;4981651;28;20117;-81
2023/09/01 12:48:03;;;;;;;8.73;6.55;;;;;;;;;;4992004;28;20023;-81
2023/09/01 12:50:30;;;;;;;8.75;7.03;;;;;;;;;;4990563;28;20026;-80
2023/09/01 12:52:56;;;;;;;8.27;6.60;;;;;;;;;;4975328;28;20037;-80
2023/09/01 12:55:23;;;;;;;8.95;7.63;;;;;;;;;;4993281;28;20109;-80
2023/09/01 12:57:48;;;;;;;9.15;7.07;;;;;;;;;;4984426;28;20501;-79
2023/09/01 13:00:14;;;;;;;8.73;7.13;;;;;;;;;;4991573;28;20068;-80
2023/09/01 13:02:40;;;;;;;7.80;6.50;;;;;;;;;;5001162;28;20030;-80
2023/09/01 13:05:06;;;;;;;8.27;6.82;;;;;;;;;;4973200;28;20030;-80
2023/09/01 13:07:31;;;;;;;9.60;7.05;;;;;;;;;;4998769;28;20018;-79
2023/09/01 13:09:56;;;;;;;8.57;7.03;;;;;;;;;;4994477;28;20052;-80
2023/09/01 13:12:22;;;;;;;8.32;6.85;;;;;;;;;;4976757;28;20023;-80
2023/09/01 13:14:47;;;;;;;10.82;7.57;;;;;;;;;;4980303;28;20077;-80
2023/09/01 13:17:12;;;;;;;9.57;7.47;;;;;;;;;;5001905;28;20053;-80
2023/09/01 13:19:38;;;;;;;10.57;7.13;;;;;;;;;;4996412;28;20038;-80
2023/09/01 13:22:03;;;;;;;7.97;6.60;;;;;;;;;;5002546;28;20398;-79
2023/09/01 13:24:28;;;;;;;10.55;7.25;;;;;;;;;;4971308;28;20382;-80
2023/09/01 13:26:54;;;;;;;8.90;6.78;;;;;;;;;;4989504;28;20471;-80
2023/09/01 13:29:20;;;;;;;8.25;6.38;;;;;;;;;;4976175;28;20418;-80
2023/09/01 13:31:45;;;;;;;8.43;6.43;;;;;;;;;;5003984;28;20040;-80
2023/09/01 13:34:11;;;;;;;8.95;6.25;;;;;;;;;;4977085;28;20025;-80
2023/09/01 13:36:36;;;;;;;9.27;6.90;;;;;;;;;;4993742;28;20109;-80
2023/09/01 13:39:02;;;;;;;9.13;7.20;;;;;;;;;;4976011;28;20029;-80
2023/09/01 13:41:28;;;;;;;10.50;6.82;;;;;;;;;;4992305;28;20050;-80
2023/09/01 13:43:53;;;;;;;9.98;7.93;;;;;;;;;;4988531;28;20113;-80
2023/09/01 13:46:28;;;;;;;8.70;6.85;;;;;;;;;;4986109;28;20030;-80
2023/09/01 13:48:58;;;;;;;10.18;7.50;;;;;;;;;;4969431;28;20041;-80
2023/09/01 13:51:24;;;;;;;8.65;5.97;;;;;;;;;;4988410;28;20030;-80
2023/09/01 13:53:53;;;;;;;10.02;6.60;;;;;;;;;;4982683;28;20109;-80
2023/09/01 13:56:19;;;;;;;9.60;6.63;;;;;;;;;;4983725;28;20034;-80
2023/09/01 13:58:45;;;;;;;10.20;6.97;;;;;;;;;;4969557;28;20650;-80
2023/09/01 14:01:10;;;;;;;10.25;6.50;;;;;;;;;;4965587;28;20035;-80
2023/09/01 14:03:38;;;;;;;9.02;6.00;;;;;;;;;;4962334;28;20093;-81
2023/09/01 14:06:04;;;;;;;9.63;6.80;;;;;;;;;;4980697;28;20034;-81
2023/09/01 14:08:30;;;;;;;8.52;6.53;;;;;;;;;;4983575;28;20077;-81
2023/09/01 14:10:57;;;;;;;8.95;5.93;;;;;;;;;;4963976;28;20093;-81
2023/09/01 14:13:23;;;;;;;10.57;6.45;;;;;;;;;;4966287;28;20049;-83
2023/09/01 14:15:57;;;;;;;10.90;5.97;;;;;;;;;;4969972;28;20030;-84
2023/09/01 14:18:25;;;;;;;8.52;5.65;;;;;;;;;;4983703;28;20019;-83
2023/09/01 14:20:53;;;;;;;9.25;6.38;;;;;;;;;;4984287;28;20525;-81
2023/09/01 14:23:20;;;;;;;10.02;6.50;;;;;;;;;;4982984;28;20081;-80
2023/09/01 14:25:46;;;;;;;10.32;6.95;;;;;;;;;;4962671;28;20034;-79
2023/09/01 14:28:11;;;;;;;12.35;7.32;;;;;;;;;;4984563;28;20345;-79
2023/09/01 14:30:36;;;;;;;10.73;7.22;;;;;;;;;;4968966;28;20030;-79
2023/09/01 14:33:02;;;;;;;11.18;7.13;;;;;;;;;;4984431;28;20034;-80
2023/09/01 14:35:27;;;;;;;9.52;6.38;;;;;;;;;;4982899;28;20537;-79
2023/09/01 14:37:53;;;;;;;9.90;6.20;;;;;;;;;;4966798;28;20034;-80
2023/09/01 14:40:18;;;;;;;9.60;5.85;;;;;;;;;;4982312;28;20026;-79